Terminal Aerodrome Forecast
Issued by NWS Upton, NY

Home | Current Version | Previous Version | Text Only | Print | Product List | Glossary On
Versions: 1 2 3 4 5 6 7 8 9 10 11 12 13 14 15 16 17 18 19 20 21 22 23 24 25 26 27 28 29
000
FTUS41 KOKX 251531 AAB
TAFEWR
TAF AMD
KEWR 251531Z 2516/2618 24008KT P6SM SCT020 BKN150
     FM252000 26010KT P6SM BKN070 BKN250
      TEMPO 2520/2524 4SM TSRA BKN040CB
     FM260000 25007KT 5SM -SHRA BKN040 BKN100
     FM260200 24006KT P6SM SCT100 BKN250
     FM260900 30006KT P6SM SCT250
     FM261200 32008KT P6SM SCT250
     FM261600 28010KT P6SM SCT250=

USA.gov is the U.S. government's official web portal to all federal, state and local government web resources and services.